createdAt,value
2023-03-18T00:01:09.753Z,13.82
2023-03-18T00:03:38.690Z,15.60
2023-03-18T00:06:13.033Z,15.77
2023-03-18T00:08:41.266Z,16.30
2023-03-18T00:11:11.190Z,14.77
2023-03-18T00:13:38.961Z,15.35
2023-03-18T00:16:07.075Z,15.18
2023-03-18T00:18:34.661Z,15.43
2023-03-18T00:21:02.351Z,16.20
2023-03-18T00:23:29.553Z,14.80
2023-03-18T00:25:58.282Z,15.82
2023-03-18T00:28:26.037Z,15.80
2023-03-18T00:30:54.362Z,16.00
2023-03-18T00:33:21.780Z,15.63
2023-03-18T00:35:48.920Z,15.07
2023-03-18T00:38:25.358Z,15.63
2023-03-18T00:40:53.754Z,14.27
2023-03-18T00:43:22.839Z,14.15
2023-03-18T00:45:51.226Z,14.82
2023-03-18T00:48:18.459Z,15.25
2023-03-18T00:50:45.735Z,17.27
2023-03-18T00:53:14.329Z,15.80
2023-03-18T00:55:42.190Z,15.40
2023-03-18T00:58:10.909Z,14.38
2023-03-18T01:00:39.048Z,14.43
2023-03-18T01:03:06.773Z,15.00
2023-03-18T01:05:35.944Z,14.88
2023-03-18T01:08:03.216Z,15.18
2023-03-18T01:10:30.771Z,16.05
2023-03-18T01:12:58.746Z,15.02
2023-03-18T01:15:25.706Z,12.82
2023-03-18T01:17:57.046Z,14.95
2023-03-18T01:20:25.584Z,14.63
2023-03-18T01:22:52.808Z,13.95
2023-03-18T01:25:20.418Z,15.73
2023-03-18T01:27:47.639Z,15.05
2023-03-18T01:30:14.834Z,14.63
2023-03-18T01:32:44.015Z,13.85
2023-03-18T01:35:12.521Z,15.10
2023-03-18T01:37:39.788Z,13.95
2023-03-18T01:40:07.748Z,14.45
2023-03-18T01:42:34.989Z,14.38
2023-03-18T01:45:17.578Z,14.93
2023-03-18T01:47:45.039Z,14.07
2023-03-18T01:50:14.072Z,13.57
2023-03-18T01:52:43.517Z,13.73
2023-03-18T01:55:15.207Z,13.50
2023-03-18T01:57:44.432Z,13.15
2023-03-18T02:00:12.974Z,12.90
2023-03-18T02:02:41.303Z,13.07
2023-03-18T02:05:11.379Z,12.93
2023-03-18T02:07:42.670Z,13.32
2023-03-18T02:10:19.296Z,11.95
2023-03-18T02:12:50.900Z,13.23
2023-03-18T02:15:22.623Z,12.63
2023-03-18T02:17:56.234Z,13.32
2023-03-18T02:20:38.422Z,14.70
2023-03-18T02:23:27.148Z,14.02
2023-03-18T02:26:11.135Z,12.43
2023-03-18T02:28:39.790Z,12.80
2023-03-18T02:31:11.950Z,13.55
2023-03-18T02:33:42.052Z,13.35
2023-03-18T02:36:17.860Z,12.60
2023-03-18T02:38:45.573Z,13.77
2023-03-18T02:41:19.297Z,12.27
2023-03-18T02:43:47.427Z,13.25
2023-03-18T02:46:14.528Z,12.93
2023-03-18T02:48:45.289Z,14.73
2023-03-18T02:51:14.546Z,14.07
2023-03-18T02:53:50.912Z,14.73
2023-03-18T02:56:17.799Z,13.32
2023-03-18T02:58:46.592Z,13.60
2023-03-18T03:01:13.857Z,13.02
2023-03-18T03:03:41.530Z,13.98
2023-03-18T03:06:08.969Z,13.75
2023-03-18T03:08:36.146Z,14.20
2023-03-18T03:11:03.204Z,13.60
2023-03-18T03:13:30.521Z,13.50
2023-03-18T03:15:57.498Z,13.32
2023-03-18T03:18:24.731Z,13.30
2023-03-18T03:20:52.268Z,11.57
2023-03-18T03:23:19.745Z,13.73
2023-03-18T03:25:46.724Z,12.60
2023-03-18T03:28:14.686Z,13.10
2023-03-18T03:30:42.348Z,12.75
2023-03-18T03:33:10.128Z,13.00
2023-03-18T03:35:38.601Z,13.88
2023-03-18T03:38:06.051Z,13.88
2023-03-18T03:40:33.366Z,12.43
2023-03-18T03:43:00.794Z,11.60
2023-03-18T03:45:28.226Z,12.05
2023-03-18T03:47:55.856Z,13.30
2023-03-18T03:50:25.264Z,11.93
2023-03-18T03:52:53.199Z,13.60
2023-03-18T03:55:22.672Z,11.98
2023-03-18T03:57:50.259Z,11.95
2023-03-18T04:00:28.663Z,12.65
2023-03-18T04:02:56.432Z,12.20
2023-03-18T04:05:24.846Z,11.27
2023-03-18T04:07:53.283Z,11.90
2023-03-18T04:10:21.570Z,12.10
2023-03-18T04:12:48.870Z,12.77
2023-03-18T04:15:24.422Z,12.15
2023-03-18T04:17:51.782Z,12.05
2023-03-18T04:20:18.973Z,13.73
2023-03-18T04:22:46.188Z,12.40
2023-03-18T04:25:14.923Z,12.73
2023-03-18T04:27:42.919Z,12.85
2023-03-18T04:30:11.300Z,13.15
2023-03-18T04:32:38.499Z,12.20
2023-03-18T04:35:06.049Z,14.25
2023-03-18T04:37:37.085Z,12.45
2023-03-18T04:40:06.357Z,11.95
2023-03-18T04:42:34.331Z,12.85
2023-03-18T04:45:01.902Z,12.80
2023-03-18T04:47:29.153Z,12.73
2023-03-18T04:49:56.100Z,14.30
2023-03-18T04:52:23.359Z,14.77
2023-03-18T04:54:50.652Z,13.73
2023-03-18T04:57:18.472Z,14.38
2023-03-18T04:59:46.205Z,14.43
2023-03-18T05:02:13.599Z,15.85
2023-03-18T05:04:40.505Z,15.77
2023-03-18T05:07:08.723Z,17.08
2023-03-18T05:09:35.674Z,15.82
2023-03-18T05:12:02.808Z,16.92
2023-03-18T05:14:29.981Z,16.45
2023-03-18T05:16:57.237Z,18.58
2023-03-18T05:19:25.383Z,16.48
2023-03-18T05:21:52.708Z,17.40
2023-03-18T05:24:19.623Z,16.10
2023-03-18T05:26:48.042Z,14.98
2023-03-18T05:29:19.613Z,17.02
2023-03-18T05:31:46.805Z,16.25
2023-03-18T05:34:13.792Z,16.63
2023-03-18T05:36:40.900Z,18.13
2023-03-18T05:39:08.826Z,17.90
2023-03-18T05:41:36.183Z,17.83
2023-03-18T05:44:03.110Z,13.70
2023-03-18T05:46:30.279Z,16.67
2023-03-18T05:48:57.278Z,13.43
2023-03-18T05:51:24.898Z,14.50
2023-03-18T05:53:51.700Z,13.77
2023-03-18T05:56:19.037Z,12.68
2023-03-18T05:58:46.051Z,13.60
2023-03-18T06:01:14.195Z,12.43
2023-03-18T06:03:41.293Z,15.27
2023-03-18T06:06:09.016Z,14.77
2023-03-18T06:08:35.959Z,12.57
2023-03-18T06:11:04.056Z,13.55
2023-03-18T06:13:30.914Z,12.23
2023-03-18T06:16:03.886Z,12.13
2023-03-18T06:18:31.114Z,12.63
2023-03-18T06:20:58.188Z,13.70
2023-03-18T06:23:25.064Z,13.43
2023-03-18T06:25:52.552Z,13.35
2023-03-18T06:28:19.479Z,12.90
2023-03-18T06:30:46.934Z,13.32
2023-03-18T06:33:17.653Z,13.43
2023-03-18T06:35:44.904Z,13.15
2023-03-18T06:38:14.437Z,12.57
2023-03-18T06:40:41.627Z,14.07
2023-03-18T06:43:08.550Z,11.25
2023-03-18T06:45:35.717Z,11.38
2023-03-18T06:48:03.888Z,10.85
2023-03-18T06:50:32.210Z,12.23
2023-03-18T06:53:00.018Z,12.55
2023-03-18T06:55:28.174Z,13.50
2023-03-18T06:57:56.483Z,13.20
2023-03-18T07:00:24.879Z,12.73
2023-03-18T07:02:52.578Z,12.13
2023-03-18T07:05:20.720Z,13.38
2023-03-18T07:07:48.589Z,13.07
2023-03-18T07:10:27.406Z,12.95
2023-03-18T07:12:54.697Z,13.65
2023-03-18T07:15:23.507Z,12.20
2023-03-18T07:17:51.015Z,13.75
2023-03-18T07:20:18.785Z,13.77
2023-03-18T07:22:47.052Z,12.07
2023-03-18T07:25:14.657Z,15.07
2023-03-18T07:27:42.426Z,15.15
2023-03-18T07:30:10.270Z,13.27
2023-03-18T07:32:38.670Z,14.45
2023-03-18T07:35:07.084Z,14.38
2023-03-18T07:37:36.044Z,14.52
2023-03-18T07:40:04.063Z,13.23
2023-03-18T07:42:31.303Z,14.38
2023-03-18T07:44:58.463Z,14.35
2023-03-18T07:47:25.356Z,15.80
2023-03-18T07:49:52.776Z,13.43
2023-03-18T07:52:19.855Z,14.73
2023-03-18T07:54:47.158Z,15.05
2023-03-18T07:57:14.101Z,13.90
2023-03-18T07:59:41.767Z,15.48
2023-03-18T08:02:12.543Z,14.32
2023-03-18T08:04:40.465Z,14.23
2023-03-18T08:07:07.496Z,14.63
2023-03-18T08:09:34.899Z,14.32
2023-03-18T08:12:01.692Z,16.65
2023-03-18T08:14:28.884Z,15.82
2023-03-18T08:16:55.809Z,16.52
2023-03-18T08:19:23.068Z,16.10
2023-03-18T08:21:50.116Z,14.18
2023-03-18T08:24:17.497Z,13.75
2023-03-18T08:26:44.421Z,14.45
2023-03-18T08:29:11.569Z,15.77
2023-03-18T08:31:39.005Z,13.52
2023-03-18T08:34:06.981Z,12.75
2023-03-18T08:36:33.975Z,12.25
2023-03-18T08:39:01.901Z,12.85
2023-03-18T08:41:28.769Z,13.18
2023-03-18T08:43:57.491Z,12.43
2023-03-18T08:46:24.557Z,11.88
2023-03-18T08:48:51.709Z,14.50
2023-03-18T08:51:18.557Z,13.30
2023-03-18T08:53:45.906Z,12.98
2023-03-18T08:56:14.833Z,13.60
2023-03-18T08:58:41.981Z,11.93
2023-03-18T09:01:11.729Z,13.15
2023-03-18T09:03:39.473Z,13.25
2023-03-18T09:06:06.977Z,12.00
2023-03-18T09:08:34.302Z,9.80
2023-03-18T09:11:01.199Z,9.00
2023-03-18T09:13:28.427Z,8.88
2023-03-18T09:15:55.372Z,9.50
2023-03-18T09:18:23.067Z,8.10
2023-03-18T09:20:50.357Z,8.85
2023-03-18T09:23:18.711Z,9.88
2023-03-18T09:25:50.202Z,8.68
2023-03-18T09:28:17.889Z,9.23
2023-03-18T09:30:44.832Z,9.07
2023-03-18T09:33:12.202Z,8.75
2023-03-18T09:35:39.716Z,8.77
2023-03-18T09:38:07.443Z,9.63
2023-03-18T09:40:38.535Z,9.13
2023-03-18T09:43:32.399Z,7.55
2023-03-18T09:46:44.891Z,7.25
2023-03-18T09:49:21.201Z,8.15
2023-03-18T09:52:00.780Z,7.72
2023-03-18T09:54:44.840Z,6.47
2023-03-18T10:00:26.079Z,7.05
2023-03-18T10:03:02.946Z,7.72
2023-03-18T10:05:34.348Z,7.70
2023-03-18T10:08:14.381Z,6.90
2023-03-18T10:10:46.780Z,6.82
2023-03-18T10:13:39.016Z,6.65
2023-03-18T10:16:16.826Z,6.55
2023-03-18T10:18:44.861Z,7.15
2023-03-18T10:21:27.720Z,6.05
2023-03-18T10:24:07.548Z,6.55
2023-03-18T10:26:52.760Z,6.10
2023-03-18T10:29:38.839Z,7.82
2023-03-18T10:32:18.840Z,6.30
2023-03-18T10:34:46.157Z,6.20
2023-03-18T10:37:35.051Z,6.55
2023-03-18T10:40:12.424Z,6.05
2023-03-18T10:42:41.587Z,5.53
2023-03-18T10:45:34.355Z,5.93
2023-03-18T10:48:12.392Z,5.53
2023-03-18T10:50:44.536Z,5.32
2023-03-18T10:53:40.803Z,5.38
2023-03-18T10:56:13.607Z,5.93
2023-03-18T10:58:42.506Z,6.95
2023-03-18T11:01:12.114Z,5.75
2023-03-18T11:03:47.435Z,5.35
2023-03-18T11:06:25.434Z,7.80
2023-03-18T11:09:08.614Z,8.02
2023-03-18T11:11:43.266Z,6.28
2023-03-18T11:14:45.677Z,7.60
2023-03-18T11:17:23.768Z,7.03
2023-03-18T11:20:46.644Z,6.78
2023-03-18T11:23:20.587Z,7.70
2023-03-18T11:25:50.978Z,7.47
2023-03-18T11:28:31.293Z,7.93
2023-03-18T11:31:05.121Z,5.97
2023-03-18T11:33:37.315Z,5.20
2023-03-18T11:36:13.430Z,4.95
2023-03-18T11:38:40.407Z,4.82
2023-03-18T11:41:22.454Z,5.10
2023-03-18T11:43:56.407Z,4.78
2023-03-18T11:46:26.539Z,5.10
2023-03-18T11:48:53.471Z,5.30
2023-03-18T11:51:49.603Z,5.32
2023-03-18T11:54:34.782Z,5.22
2023-03-18T11:57:15.844Z,5.00
2023-03-18T12:00:13.520Z,5.22
2023-03-18T12:03:21.780Z,5.82
2023-03-18T12:06:18.067Z,4.88
2023-03-18T12:08:54.461Z,6.03
2023-03-18T12:11:59.404Z,5.45
2023-03-18T12:14:29.993Z,5.63
2023-03-18T12:17:18.789Z,5.90
2023-03-18T12:19:49.165Z,5.82
2023-03-18T12:22:50.438Z,5.65
2023-03-18T12:25:54.173Z,5.72
2023-03-18T12:28:56.340Z,5.43
2023-03-18T12:31:59.502Z,5.55
2023-03-18T12:35:01.266Z,5.68
2023-03-18T12:37:32.458Z,5.70
2023-03-18T12:40:02.514Z,5.88
2023-03-18T12:42:57.620Z,5.50
2023-03-18T12:45:30.701Z,5.90
2023-03-18T12:48:07.295Z,5.80
2023-03-18T12:50:36.661Z,5.43
2023-03-18T12:53:30.207Z,6.65
2023-03-18T12:56:21.026Z,6.35
2023-03-18T12:58:55.168Z,6.50
2023-03-18T13:01:37.211Z,6.05
2023-03-18T13:04:12.003Z,6.30
2023-03-18T13:07:06.103Z,7.03
2023-03-18T13:10:04.016Z,6.30
2023-03-18T13:12:35.427Z,6.47
2023-03-18T13:15:02.915Z,6.40
2023-03-18T13:17:33.114Z,7.15
2023-03-18T13:20:02.321Z,8.18
2023-03-18T13:22:36.159Z,13.85
2023-03-18T13:25:21.124Z,10.60
2023-03-18T13:28:14.171Z,6.70
2023-03-18T13:31:08.178Z,6.65
2023-03-18T13:33:55.078Z,6.45
2023-03-18T13:36:46.560Z,6.20
2023-03-18T13:39:38.383Z,6.10
2023-03-18T13:42:39.226Z,6.68
2023-03-18T13:45:13.036Z,5.88
2023-03-18T13:47:42.650Z,6.38
2023-03-18T13:50:43.491Z,5.70
2023-03-18T13:53:42.638Z,5.70
2023-03-18T13:56:47.816Z,6.00
2023-03-18T13:59:33.298Z,4.72
2023-03-18T14:02:24.873Z,4.90
2023-03-18T14:04:53.290Z,5.55
2023-03-18T14:07:21.985Z,5.80
2023-03-18T14:09:55.773Z,5.47
2023-03-18T14:12:30.963Z,5.93
2023-03-18T14:15:37.258Z,6.05
2023-03-18T14:18:27.240Z,6.88
2023-03-18T14:21:00.367Z,6.05
2023-03-18T14:23:44.433Z,5.55
2023-03-18T14:26:21.996Z,5.03
2023-03-18T14:31:39.628Z,5.38
2023-03-18T14:34:18.954Z,5.28
2023-03-18T14:37:05.915Z,4.95
2023-03-18T14:39:38.606Z,4.90
2023-03-18T14:42:33.068Z,5.38
2023-03-18T14:45:20.787Z,5.10
2023-03-18T14:47:54.450Z,5.65
2023-03-18T14:50:28.703Z,6.30
2023-03-18T14:53:25.152Z,6.93
2023-03-18T14:55:55.144Z,6.50
2023-03-18T14:58:40.167Z,5.47
2023-03-18T15:01:10.958Z,5.93
2023-03-18T15:03:40.723Z,6.68
2023-03-18T15:06:08.326Z,6.55
2023-03-18T15:08:47.837Z,6.00
2023-03-18T15:11:16.715Z,5.68
2023-03-18T15:14:03.937Z,6.40
2023-03-18T15:16:33.873Z,6.57
2023-03-18T15:19:01.015Z,6.57
2023-03-18T15:21:32.546Z,6.68
2023-03-18T15:24:04.510Z,5.82
2023-03-18T15:26:36.429Z,6.80
2023-03-18T15:29:29.189Z,6.30
2023-03-18T15:32:10.380Z,6.80
2023-03-18T15:34:38.585Z,6.80
2023-03-18T15:37:25.936Z,5.82
2023-03-18T15:39:56.253Z,6.15
2023-03-18T15:42:23.994Z,6.68
2023-03-18T15:44:59.778Z,7.03
2023-03-18T15:47:32.202Z,7.90
2023-03-18T15:50:31.800Z,7.40
2023-03-18T15:53:21.837Z,7.95
2023-03-18T15:55:59.320Z,7.32
2023-03-18T15:58:37.936Z,7.45
2023-03-18T16:01:07.316Z,7.32
2023-03-18T16:03:35.257Z,7.88
2023-03-18T16:06:03.205Z,7.45
2023-03-18T16:08:30.651Z,7.82
2023-03-18T16:11:02.283Z,9.80
2023-03-18T16:13:32.252Z,13.23
2023-03-18T16:16:00.359Z,17.17
2023-03-18T16:18:27.252Z,18.60
2023-03-18T16:20:54.573Z,17.35
2023-03-18T16:23:21.967Z,18.95
2023-03-18T16:25:52.303Z,21.35
2023-03-18T16:28:25.083Z,49.80
2023-03-18T16:30:54.347Z,70.03
2023-03-18T16:33:29.693Z,28.00
2023-03-18T16:35:59.776Z,21.38
2023-03-18T16:38:28.494Z,20.73
2023-03-18T16:40:57.496Z,25.40
2023-03-18T16:43:28.098Z,39.70
2023-03-18T16:46:05.917Z,27.08
2023-03-18T16:48:53.286Z,29.60
2023-03-18T16:51:20.733Z,25.30
2023-03-18T16:53:48.493Z,26.70
2023-03-18T16:56:28.075Z,53.85
2023-03-18T16:58:54.922Z,73.55
2023-03-18T17:01:33.671Z,109.82
2023-03-18T17:04:00.673Z,97.35
2023-03-18T17:06:28.058Z,74.70
2023-03-18T17:08:54.963Z,57.13
2023-03-18T17:11:22.845Z,69.32
2023-03-18T17:13:50.217Z,99.60
2023-03-18T17:16:20.208Z,94.05
2023-03-18T17:18:47.248Z,121.53
2023-03-18T17:21:14.418Z,113.85
2023-03-18T17:23:42.871Z,164.15
2023-03-18T17:26:13.079Z,206.25
2023-03-18T17:28:43.846Z,145.52
2023-03-18T17:31:12.287Z,107.90
2023-03-18T17:33:47.357Z,155.55
2023-03-18T17:36:14.702Z,91.43
2023-03-18T17:38:41.907Z,80.20
2023-03-18T17:41:19.373Z,66.70
2023-03-18T17:43:47.240Z,47.47
2023-03-18T17:46:14.525Z,43.53
2023-03-18T17:48:41.497Z,38.45
2023-03-18T17:51:15.601Z,31.67
2023-03-18T17:53:48.897Z,31.33
2023-03-18T17:56:18.491Z,33.95
2023-03-18T17:58:51.470Z,30.05
2023-03-18T18:01:22.498Z,27.67
2023-03-18T18:03:50.341Z,24.90
2023-03-18T18:06:23.763Z,26.90
2023-03-18T18:08:50.871Z,43.45
2023-03-18T18:11:32.064Z,55.42
2023-03-18T18:14:10.971Z,76.85
2023-03-18T18:16:38.534Z,105.80
2023-03-18T18:19:05.356Z,105.85
2023-03-18T18:21:32.518Z,69.32
2023-03-18T18:23:59.552Z,68.63
2023-03-18T18:26:26.694Z,71.60
2023-03-18T18:28:54.294Z,60.05
2023-03-18T18:31:24.193Z,59.03
2023-03-18T18:33:52.524Z,61.00
2023-03-18T18:36:22.789Z,61.70
2023-03-18T18:38:49.920Z,58.67
2023-03-18T18:41:17.259Z,72.72
2023-03-18T18:43:44.358Z,62.22
2023-03-18T18:46:16.411Z,62.17
2023-03-18T18:48:48.589Z,54.47
2023-03-18T18:51:21.970Z,65.22
2023-03-18T18:53:55.556Z,70.22
2023-03-18T18:56:39.264Z,59.67
2023-03-18T18:59:32.277Z,63.35
2023-03-18T19:02:00.783Z,77.20
2023-03-18T19:04:29.251Z,67.47
2023-03-18T19:06:56.752Z,61.40
2023-03-18T19:09:32.756Z,45.60
2023-03-18T19:12:00.088Z,35.05
2023-03-18T19:14:29.108Z,31.73
2023-03-18T19:16:58.802Z,31.85
2023-03-18T19:19:29.022Z,34.05
2023-03-18T19:21:57.655Z,34.50
2023-03-18T19:24:31.263Z,30.55
2023-03-18T19:27:15.785Z,27.30
2023-03-18T19:29:43.508Z,24.55
2023-03-18T19:32:16.637Z,25.80
2023-03-18T19:34:44.288Z,27.60
2023-03-18T19:37:21.049Z,31.77
2023-03-18T19:39:49.480Z,32.63
2023-03-18T19:42:20.089Z,34.45
2023-03-18T19:44:47.689Z,36.13
2023-03-18T19:47:27.025Z,37.97
2023-03-18T19:49:54.360Z,28.67
2023-03-18T19:52:33.072Z,28.02
2023-03-18T19:55:09.843Z,27.10
2023-03-18T19:57:37.267Z,30.67
2023-03-18T20:00:10.508Z,29.38
2023-03-18T20:02:38.708Z,32.90
2023-03-18T20:05:20.233Z,31.77
2023-03-18T20:07:50.379Z,34.33
2023-03-18T20:10:19.215Z,37.85
2023-03-18T20:12:49.307Z,35.67
2023-03-18T20:15:26.928Z,40.65
2023-03-18T20:17:54.548Z,43.25
2023-03-18T20:20:23.991Z,42.00
2023-03-18T20:23:06.465Z,52.15
2023-03-18T20:25:58.290Z,52.08
2023-03-18T20:28:26.944Z,38.60
2023-03-18T20:30:56.428Z,37.20
2023-03-18T20:33:24.284Z,36.05
2023-03-18T20:35:54.807Z,34.42
2023-03-18T20:38:39.903Z,41.45
2023-03-18T20:41:07.246Z,44.28
2023-03-18T20:43:34.605Z,43.75
2023-03-18T20:46:02.662Z,41.55
2023-03-18T20:48:30.454Z,44.13
2023-03-18T20:50:58.517Z,47.42
2023-03-18T20:53:31.878Z,45.25
2023-03-18T20:55:59.102Z,48.13
2023-03-18T20:58:27.641Z,53.38
2023-03-18T21:00:55.134Z,54.75
2023-03-18T21:03:34.525Z,53.10
2023-03-18T21:06:03.983Z,46.78
2023-03-18T21:08:32.210Z,46.97
2023-03-18T21:11:22.201Z,46.58
2023-03-18T21:13:49.542Z,44.20
2023-03-18T21:16:18.474Z,44.75
2023-03-18T21:18:48.388Z,44.25
2023-03-18T21:21:20.351Z,47.05
2023-03-18T21:23:51.448Z,43.53
2023-03-18T21:26:19.141Z,44.90
2023-03-18T21:28:46.955Z,47.03
2023-03-18T21:31:27.280Z,52.40
2023-03-18T21:33:57.465Z,43.22
2023-03-18T21:36:24.468Z,41.22
2023-03-18T21:38:52.066Z,42.65
2023-03-18T21:41:28.506Z,48.65
2023-03-18T21:43:58.257Z,46.72
2023-03-18T21:46:27.263Z,43.00
2023-03-18T21:48:55.603Z,44.05
2023-03-18T21:51:38.707Z,42.15
2023-03-18T21:54:18.547Z,44.67
2023-03-18T21:56:45.558Z,41.08
2023-03-18T21:59:12.855Z,41.70
2023-03-18T22:01:40.018Z,45.03
2023-03-18T22:04:07.694Z,46.00
2023-03-18T22:06:34.685Z,44.63
2023-03-18T22:09:02.374Z,49.72
2023-03-18T22:11:29.375Z,45.65
2023-03-18T22:13:56.565Z,44.08
2023-03-18T22:16:23.940Z,44.25
2023-03-18T22:18:51.406Z,39.25
2023-03-18T22:21:27.646Z,40.08
2023-03-18T22:23:55.714Z,38.28
2023-03-18T22:26:22.773Z,34.55
2023-03-18T22:28:52.169Z,30.98
2023-03-18T22:31:25.780Z,30.20
2023-03-18T22:33:53.845Z,34.47
2023-03-18T22:36:21.994Z,33.45
2023-03-18T22:38:49.634Z,31.83
2023-03-18T22:41:22.604Z,30.52
2023-03-18T22:43:51.071Z,32.33
2023-03-18T22:46:18.388Z,30.58
2023-03-18T22:48:45.703Z,32.92
2023-03-18T22:51:21.966Z,35.38
2023-03-18T22:53:52.135Z,36.85
2023-03-18T22:56:19.342Z,37.33
2023-03-18T22:58:46.653Z,38.72
2023-03-18T23:01:18.794Z,37.97
2023-03-18T23:03:47.770Z,33.60
2023-03-18T23:06:21.259Z,32.85
2023-03-18T23:08:48.431Z,30.77
2023-03-18T23:11:16.758Z,32.13
2023-03-18T23:13:55.319Z,34.80
2023-03-18T23:16:23.752Z,35.22
2023-03-18T23:18:51.777Z,34.03
2023-03-18T23:21:38.588Z,32.72
2023-03-18T23:24:06.054Z,31.55
2023-03-18T23:26:33.014Z,29.90
2023-03-18T23:29:00.210Z,28.30
2023-03-18T23:31:27.371Z,30.60
2023-03-18T23:33:54.469Z,29.52
2023-03-18T23:36:21.371Z,27.45
2023-03-18T23:38:48.600Z,28.65
2023-03-18T23:41:15.923Z,31.27
2023-03-18T23:43:43.218Z,28.83
2023-03-18T23:46:10.178Z,27.92
2023-03-18T23:48:37.357Z,27.10
2023-03-18T23:51:04.455Z,24.00
2023-03-18T23:53:31.581Z,23.17
2023-03-18T23:55:58.384Z,24.02
2023-03-18T23:58:25.689Z,22.50
